createdAt,value
2017-10-27T00:00:43.680Z,22.83
2017-10-27T00:03:09.919Z,22.47
2017-10-27T00:05:36.224Z,24.80
2017-10-27T00:08:02.483Z,23.80
2017-10-27T00:10:28.726Z,20.90
2017-10-27T00:12:54.974Z,18.93
2017-10-27T00:15:21.222Z,22.00
2017-10-27T00:17:47.464Z,22.57
2017-10-27T00:20:13.742Z,23.57
2017-10-27T00:22:39.975Z,22.50
2017-10-27T00:25:06.360Z,19.40
2017-10-27T00:27:32.651Z,20.27
2017-10-27T00:29:58.877Z,20.73
2017-10-27T00:32:25.113Z,21.40
2017-10-27T00:34:51.390Z,20.90
2017-10-27T00:37:17.635Z,22.67
2017-10-27T00:39:43.875Z,22.70
2017-10-27T00:42:10.153Z,20.43
2017-10-27T00:44:36.398Z,20.93
2017-10-27T00:47:02.635Z,22.77
2017-10-27T00:49:28.907Z,19.27
2017-10-27T00:51:55.138Z,18.80
2017-10-27T00:54:21.372Z,19.07
2017-10-27T00:56:47.656Z,20.30
2017-10-27T00:59:13.911Z,20.20
2017-10-27T01:01:40.164Z,28.83
2017-10-27T01:04:06.437Z,19.80
2017-10-27T01:06:32.672Z,20.03
2017-10-27T01:08:58.921Z,19.10
2017-10-27T01:11:25.216Z,18.20
2017-10-27T01:13:51.450Z,18.10
2017-10-27T01:16:17.687Z,21.97
2017-10-27T01:18:43.970Z,23.17
2017-10-27T01:21:10.215Z,22.00
2017-10-27T01:23:36.456Z,25.60
2017-10-27T01:26:02.728Z,22.30
2017-10-27T01:28:28.962Z,23.10
2017-10-27T01:30:55.197Z,22.13
2017-10-27T01:33:21.484Z,22.20
2017-10-27T01:35:47.717Z,21.40
2017-10-27T01:38:13.959Z,25.53
2017-10-27T01:40:40.256Z,22.50
2017-10-27T01:43:06.487Z,27.00
2017-10-27T01:45:32.727Z,19.90
2017-10-27T01:47:59.013Z,25.90
2017-10-27T01:50:25.242Z,24.27
2017-10-27T01:52:51.470Z,36.10
2017-10-27T01:55:17.733Z,27.20
2017-10-27T01:57:43.958Z,24.23
2017-10-27T02:00:10.189Z,20.73
2017-10-27T02:02:36.490Z,24.97
2017-10-27T02:05:02.721Z,22.53
2017-10-27T02:07:28.997Z,23.80
2017-10-27T02:09:55.266Z,30.07
2017-10-27T02:12:21.496Z,22.60
2017-10-27T02:14:47.722Z,27.53
2017-10-27T02:17:14.008Z,25.70
2017-10-27T02:19:40.264Z,24.00
2017-10-27T02:22:06.500Z,30.87
2017-10-27T02:24:32.775Z,18.10
2017-10-27T02:26:59.012Z,16.07
2017-10-27T02:29:25.233Z,14.33
2017-10-27T02:31:51.488Z,14.00
2017-10-27T02:34:17.721Z,14.37
2017-10-27T02:36:43.976Z,14.87
2017-10-27T02:39:10.256Z,17.47
2017-10-27T02:41:36.487Z,14.80
2017-10-27T02:44:02.706Z,16.50
2017-10-27T02:46:28.984Z,16.27
2017-10-27T02:48:55.205Z,18.27
2017-10-27T02:51:21.439Z,18.43
2017-10-27T02:53:47.712Z,18.80
2017-10-27T02:56:13.938Z,24.77
2017-10-27T02:58:40.207Z,23.17
2017-10-27T03:01:06.485Z,22.67
2017-10-27T03:03:32.720Z,27.27
2017-10-27T03:05:58.964Z,43.77
2017-10-27T03:08:25.513Z,24.17
2017-10-27T03:10:51.757Z,23.47
2017-10-27T03:13:17.996Z,20.57
2017-10-27T03:15:44.418Z,21.77
2017-10-27T03:18:10.660Z,19.00
2017-10-27T03:20:36.891Z,23.40
2017-10-27T03:23:03.166Z,16.80
2017-10-27T03:25:29.406Z,20.70
2017-10-27T03:27:55.652Z,19.00
2017-10-27T03:30:21.950Z,16.20
2017-10-27T03:32:48.186Z,17.67
2017-10-27T03:35:14.436Z,23.00
2017-10-27T03:37:40.689Z,19.40
2017-10-27T03:40:06.912Z,16.87
2017-10-27T03:42:33.148Z,19.57
2017-10-27T03:44:59.416Z,23.07
2017-10-27T03:47:25.656Z,18.37
2017-10-27T03:49:51.900Z,22.90
2017-10-27T03:52:18.250Z,28.37
2017-10-27T03:54:44.528Z,18.80
2017-10-27T03:57:10.755Z,18.33
2017-10-27T03:59:37.028Z,21.93
2017-10-27T04:02:03.258Z,20.13
2017-10-27T04:04:29.489Z,18.30
2017-10-27T04:06:55.768Z,24.73
2017-10-27T04:09:22.014Z,30.87
2017-10-27T04:11:48.254Z,22.80
2017-10-27T04:14:14.532Z,28.80
2017-10-27T04:16:40.762Z,25.57
2017-10-27T04:19:07.008Z,19.17
2017-10-27T04:21:33.294Z,18.20
2017-10-27T04:23:59.641Z,18.43
2017-10-27T04:26:25.862Z,16.87
2017-10-27T04:28:52.131Z,16.00
2017-10-27T04:31:18.365Z,14.67
2017-10-27T04:33:44.758Z,27.50
2017-10-27T04:36:11.039Z,13.40
2017-10-27T04:38:37.624Z,11.17
2017-10-27T04:41:03.842Z,14.07
2017-10-27T04:43:30.102Z,22.17
2017-10-27T04:45:56.320Z,24.27
2017-10-27T04:48:22.749Z,12.80
2017-10-27T04:50:49.041Z,11.90
2017-10-27T04:53:15.279Z,11.10
2017-10-27T04:55:41.488Z,13.30
2017-10-27T04:58:07.765Z,13.93
2017-10-27T05:00:33.990Z,13.87
2017-10-27T05:03:00.210Z,14.90
2017-10-27T05:05:26.465Z,15.10
2017-10-27T05:07:52.687Z,15.32
2017-10-27T05:10:18.906Z,15.65
2017-10-27T05:12:45.176Z,15.73
2017-10-27T05:15:11.412Z,16.53
2017-10-27T05:17:37.643Z,19.67
2017-10-27T05:20:03.914Z,23.37
2017-10-27T05:22:30.132Z,20.90
2017-10-27T05:24:56.380Z,19.90
2017-10-27T05:27:22.647Z,15.63
2017-10-27T05:29:48.888Z,10.20
2017-10-27T05:32:15.103Z,12.37
2017-10-27T05:34:41.365Z,14.70
2017-10-27T05:37:07.598Z,20.60
2017-10-27T05:39:33.845Z,14.73
2017-10-27T05:42:00.122Z,10.60
2017-10-27T05:44:26.344Z,10.33
2017-10-27T05:46:52.557Z,10.33
2017-10-27T05:49:18.855Z,12.77
2017-10-27T05:51:45.082Z,14.57
2017-10-27T05:54:11.306Z,12.77
2017-10-27T05:56:37.567Z,10.60
2017-10-27T05:59:03.796Z,9.73
2017-10-27T06:01:30.036Z,11.50
2017-10-27T06:03:56.289Z,9.73
2017-10-27T06:06:22.534Z,11.93
2017-10-27T06:08:48.767Z,13.57
2017-10-27T06:11:15.037Z,12.97
2017-10-27T06:13:41.262Z,11.70
2017-10-27T06:16:07.505Z,19.10
2017-10-27T06:18:33.783Z,14.30
2017-10-27T06:21:00.026Z,13.93
2017-10-27T06:23:26.238Z,12.33
2017-10-27T06:25:52.519Z,13.60
2017-10-27T06:28:18.739Z,12.60
2017-10-27T06:30:44.965Z,12.03
2017-10-27T06:33:11.252Z,15.50
2017-10-27T06:35:37.629Z,16.60
2017-10-27T06:38:03.872Z,14.93
2017-10-27T06:40:30.136Z,15.87
2017-10-27T06:42:56.364Z,17.60
2017-10-27T06:45:22.590Z,13.70
2017-10-27T06:47:48.842Z,12.87
2017-10-27T06:50:15.077Z,13.40
2017-10-27T06:52:41.293Z,10.73
2017-10-27T06:55:07.551Z,13.93
2017-10-27T06:57:33.778Z,13.37
2017-10-27T07:00:00.113Z,14.43
2017-10-27T07:02:26.381Z,14.10
2017-10-27T07:04:52.622Z,13.27
2017-10-27T07:07:18.852Z,11.30
2017-10-27T07:09:45.131Z,10.10
2017-10-27T07:12:11.470Z,10.03
2017-10-27T07:14:37.728Z,8.20
2017-10-27T07:17:03.989Z,9.83
2017-10-27T07:19:30.213Z,10.57
2017-10-27T07:21:56.451Z,8.67
2017-10-27T07:24:22.737Z,9.93
2017-10-27T07:26:48.980Z,10.70
2017-10-27T07:29:15.227Z,14.77
2017-10-27T07:31:41.511Z,17.00
2017-10-27T07:34:07.741Z,14.57
2017-10-27T07:36:33.970Z,14.70
2017-10-27T07:39:00.213Z,15.57
2017-10-27T07:41:26.453Z,12.37
2017-10-27T07:43:52.694Z,14.90
2017-10-27T07:46:18.953Z,13.03
2017-10-27T07:48:45.194Z,10.53
2017-10-27T07:51:11.414Z,11.20
2017-10-27T07:53:37.669Z,10.90
2017-10-27T07:56:03.919Z,10.30
2017-10-27T07:58:30.150Z,9.97
2017-10-27T08:00:56.427Z,11.13
2017-10-27T08:03:22.665Z,9.87
2017-10-27T08:05:48.900Z,11.90
2017-10-27T08:08:15.163Z,10.20
2017-10-27T08:10:41.391Z,9.80
2017-10-27T08:13:07.606Z,11.03
2017-10-27T08:15:34.022Z,10.57
2017-10-27T08:18:00.254Z,10.50
2017-10-27T08:20:26.523Z,11.57
2017-10-27T08:22:52.820Z,14.00
2017-10-27T08:25:19.143Z,19.77
2017-10-27T08:27:45.375Z,27.93
2017-10-27T08:30:11.630Z,16.87
2017-10-27T08:32:37.863Z,13.47
2017-10-27T08:35:04.102Z,12.80
2017-10-27T08:37:30.372Z,14.27
2017-10-27T08:39:56.616Z,15.70
2017-10-27T08:42:22.834Z,19.30
2017-10-27T08:44:49.105Z,23.80
2017-10-27T08:47:15.331Z,28.40
2017-10-27T08:49:41.562Z,34.60
2017-10-27T08:52:07.835Z,35.90
2017-10-27T08:54:34.068Z,36.73
2017-10-27T08:57:00.291Z,30.30
2017-10-27T08:59:26.553Z,26.03
2017-10-27T09:01:52.803Z,18.10
2017-10-27T09:04:19.039Z,17.90
2017-10-27T09:06:45.328Z,16.80
2017-10-27T09:09:11.570Z,12.97
2017-10-27T09:11:37.794Z,11.97
2017-10-27T09:14:04.050Z,10.30
2017-10-27T09:16:30.277Z,12.77
2017-10-27T09:18:56.507Z,10.57
2017-10-27T09:21:22.780Z,11.70
2017-10-27T09:23:49.013Z,7.80
2017-10-27T09:26:15.241Z,6.80
2017-10-27T09:28:41.487Z,8.40
2017-10-27T09:31:07.713Z,5.40
2017-10-27T09:33:33.929Z,10.13
2017-10-27T09:36:00.177Z,7.90
2017-10-27T09:38:26.402Z,9.33
2017-10-27T09:40:52.630Z,11.10
2017-10-27T09:43:18.883Z,8.70
2017-10-27T09:45:45.116Z,7.50
2017-10-27T09:48:11.329Z,7.57
2017-10-27T09:50:37.582Z,9.70
2017-10-27T09:53:03.807Z,5.67
2017-10-27T09:55:30.032Z,7.70
2017-10-27T09:57:56.305Z,11.13
2017-10-27T10:00:22.518Z,9.50
2017-10-27T10:02:48.746Z,8.33
2017-10-27T10:05:15.006Z,4.97
2017-10-27T10:07:41.350Z,5.67
2017-10-27T10:10:07.574Z,4.53
2017-10-27T10:12:33.996Z,4.53
2017-10-27T10:15:00.235Z,4.50
2017-10-27T10:17:26.468Z,3.97
2017-10-27T10:19:52.740Z,2.60
2017-10-27T10:22:18.963Z,2.90
2017-10-27T10:24:45.179Z,2.80
2017-10-27T10:27:11.431Z,2.03
2017-10-27T10:29:37.652Z,1.70
2017-10-27T10:32:03.867Z,1.57
2017-10-27T10:34:30.139Z,1.50
2017-10-27T10:36:56.379Z,1.90
2017-10-27T10:39:22.609Z,1.47
2017-10-27T10:41:48.892Z,34.03
2017-10-27T10:44:15.129Z,1.90
2017-10-27T10:46:41.352Z,3.77
2017-10-27T10:49:07.651Z,1.60
2017-10-27T10:51:33.869Z,3.43
2017-10-27T10:54:00.087Z,2.47
2017-10-27T10:56:26.352Z,1.53
2017-10-27T10:58:52.573Z,3.33
2017-10-27T11:01:18.795Z,1.73
2017-10-27T11:03:45.056Z,2.43
2017-10-27T11:06:11.274Z,2.07
2017-10-27T11:08:37.485Z,2.00
2017-10-27T11:11:03.913Z,1.87
2017-10-27T11:13:30.146Z,1.83
2017-10-27T11:15:56.385Z,1.87
2017-10-27T11:18:22.634Z,1.90
2017-10-27T11:20:48.861Z,1.87
2017-10-27T11:23:15.082Z,1.80
2017-10-27T11:25:41.353Z,1.97
2017-10-27T11:28:07.711Z,2.20
2017-10-27T11:30:33.957Z,1.60
2017-10-27T11:33:00.217Z,1.80
2017-10-27T11:35:26.611Z,1.73
2017-10-27T11:37:52.826Z,1.87
2017-10-27T11:40:19.100Z,1.60
2017-10-27T11:42:45.508Z,1.73
2017-10-27T11:45:11.736Z,2.03
2017-10-27T11:47:37.986Z,1.83
2017-10-27T11:50:04.214Z,2.03
2017-10-27T11:52:30.429Z,2.03
2017-10-27T11:54:56.683Z,2.10
2017-10-27T11:57:22.910Z,2.13
2017-10-27T11:59:49.138Z,2.17
2017-10-27T12:02:15.398Z,2.00
2017-10-27T12:04:41.613Z,3.27
2017-10-27T12:07:07.826Z,2.07
2017-10-27T12:09:34.112Z,1.90
2017-10-27T12:12:00.448Z,1.17
2017-10-27T12:14:26.681Z,1.57
2017-10-27T12:16:52.949Z,1.67
2017-10-27T12:19:19.189Z,1.67
2017-10-27T12:21:45.598Z,1.63
2017-10-27T12:24:11.840Z,1.70
2017-10-27T12:26:38.086Z,1.30
2017-10-27T12:29:04.316Z,1.57
2017-10-27T12:31:30.596Z,1.52
2017-10-27T12:33:56.825Z,1.53
2017-10-27T12:36:23.042Z,1.93
2017-10-27T12:38:49.307Z,1.53
2017-10-27T12:41:15.545Z,2.00
2017-10-27T12:43:41.758Z,2.87
2017-10-27T12:46:08.098Z,4.37
2017-10-27T12:48:34.505Z,4.90
2017-10-27T12:51:00.809Z,5.55
2017-10-27T12:53:27.124Z,3.87
2017-10-27T12:55:53.488Z,3.08
2017-10-27T12:58:19.704Z,3.25
2017-10-27T13:00:46.000Z,3.07
2017-10-27T13:03:12.208Z,3.30
2017-10-27T13:05:38.414Z,3.43
2017-10-27T13:08:04.684Z,2.73
2017-10-27T13:10:30.935Z,3.00
2017-10-27T13:12:57.145Z,2.57
2017-10-27T13:15:23.473Z,4.00
2017-10-27T13:17:49.664Z,3.33
2017-10-27T13:20:15.875Z,2.13
2017-10-27T13:22:42.138Z,2.70
2017-10-27T13:25:08.354Z,2.20
2017-10-27T13:27:34.577Z,2.47
2017-10-27T13:30:00.876Z,3.30
2017-10-27T13:32:27.087Z,1.93
2017-10-27T13:34:53.334Z,2.50
2017-10-27T13:37:19.599Z,3.40
2017-10-27T13:39:45.941Z,2.83
2017-10-27T13:42:12.157Z,3.60
2017-10-27T13:44:38.386Z,4.70
2017-10-27T13:47:04.652Z,4.17
2017-10-27T13:49:30.865Z,4.93
2017-10-27T13:51:57.091Z,4.07
2017-10-27T13:54:23.331Z,3.70
2017-10-27T13:56:49.540Z,7.83
2017-10-27T13:59:15.748Z,4.27
2017-10-27T14:01:42.012Z,3.43
2017-10-27T14:04:08.235Z,6.33
2017-10-27T14:06:34.456Z,5.50
2017-10-27T14:09:00.713Z,5.37
2017-10-27T14:11:26.956Z,5.23
2017-10-27T14:13:53.157Z,3.20
2017-10-27T14:16:19.401Z,3.40
2017-10-27T14:18:45.639Z,3.83
2017-10-27T14:21:11.904Z,5.13
2017-10-27T14:23:38.153Z,6.67
2017-10-27T14:26:04.372Z,6.00
2017-10-27T14:28:30.792Z,7.80
2017-10-27T14:30:57.200Z,7.33
2017-10-27T14:33:23.450Z,9.27
2017-10-27T14:35:49.676Z,8.37
2017-10-27T14:38:15.940Z,7.90
2017-10-27T14:40:42.172Z,10.10
2017-10-27T14:43:08.401Z,7.53
2017-10-27T14:45:34.662Z,8.03
2017-10-27T14:48:00.869Z,7.90
2017-10-27T14:50:27.098Z,11.17
2017-10-27T14:52:53.350Z,10.00
2017-10-27T14:55:19.576Z,8.47
2017-10-27T14:57:45.803Z,7.80
2017-10-27T15:00:12.064Z,7.60
2017-10-27T15:02:38.287Z,8.13
2017-10-27T15:05:04.510Z,8.50
2017-10-27T15:07:30.779Z,9.53
2017-10-27T15:09:56.997Z,14.67
2017-10-27T15:12:23.221Z,18.73
2017-10-27T15:14:49.505Z,11.17
2017-10-27T15:17:15.770Z,18.80
2017-10-27T15:19:41.983Z,16.60
2017-10-27T15:22:08.261Z,14.50
2017-10-27T15:24:34.467Z,13.03
2017-10-27T15:27:00.679Z,20.10
2017-10-27T15:29:26.936Z,14.60
2017-10-27T15:31:53.173Z,11.30
2017-10-27T15:34:19.398Z,30.17
2017-10-27T15:36:45.717Z,15.30
2017-10-27T15:39:11.930Z,17.30
2017-10-27T15:41:38.244Z,14.47
2017-10-27T15:44:04.528Z,18.10
2017-10-27T15:46:30.749Z,20.77
2017-10-27T15:48:56.978Z,40.70
2017-10-27T15:51:23.343Z,87.17
2017-10-27T15:53:49.579Z,42.00
2017-10-27T15:56:15.818Z,50.87
2017-10-27T15:58:42.084Z,45.13
2017-10-27T16:01:08.315Z,41.17
2017-10-27T16:03:34.561Z,114.80
2017-10-27T16:06:00.832Z,80.57
2017-10-27T16:08:27.169Z,59.27
2017-10-27T16:10:53.439Z,25.67
2017-10-27T16:13:19.824Z,57.20
2017-10-27T16:15:46.038Z,71.90
2017-10-27T16:18:12.268Z,35.53
2017-10-27T16:20:38.540Z,31.00
2017-10-27T16:23:04.761Z,22.47
2017-10-27T16:25:30.992Z,20.77
2017-10-27T16:27:57.247Z,39.27
2017-10-27T16:30:23.484Z,60.00
2017-10-27T16:32:49.709Z,43.53
2017-10-27T16:35:15.973Z,44.00
2017-10-27T16:37:42.181Z,39.00
2017-10-27T16:40:08.393Z,14.47
2017-10-27T16:42:34.695Z,11.60
2017-10-27T16:45:00.916Z,13.80
2017-10-27T16:47:27.157Z,9.33
2017-10-27T16:49:53.429Z,7.87
2017-10-27T16:52:19.716Z,9.00
2017-10-27T16:54:45.942Z,8.00
2017-10-27T16:57:12.277Z,10.20
2017-10-27T16:59:38.502Z,7.30
2017-10-27T17:02:04.723Z,8.37
2017-10-27T17:04:31.012Z,8.77
2017-10-27T17:06:57.247Z,12.10
2017-10-27T17:09:23.550Z,12.80
2017-10-27T17:11:49.818Z,26.77
2017-10-27T17:14:16.023Z,24.33
2017-10-27T17:16:42.392Z,21.10
2017-10-27T17:19:08.749Z,19.23
2017-10-27T17:21:34.961Z,23.40
2017-10-27T17:24:01.370Z,19.00
2017-10-27T17:26:27.618Z,24.67
2017-10-27T17:28:53.836Z,20.30
2017-10-27T17:31:20.022Z,26.47
2017-10-27T17:33:46.307Z,35.13
2017-10-27T17:36:12.513Z,20.63
2017-10-27T17:38:38.881Z,46.87
2017-10-27T17:41:05.173Z,24.33
2017-10-27T17:43:31.377Z,24.47
2017-10-27T17:45:57.593Z,26.50
2017-10-27T17:48:23.849Z,18.40
2017-10-27T17:50:50.088Z,17.27
2017-10-27T17:53:16.294Z,20.40
2017-10-27T17:55:42.567Z,19.17
2017-10-27T17:58:08.782Z,25.37
2017-10-27T18:00:34.990Z,18.60
2017-10-27T18:03:01.245Z,25.23
2017-10-27T18:05:27.518Z,16.70
2017-10-27T18:07:53.731Z,21.93
2017-10-27T18:10:19.994Z,15.23
2017-10-27T18:12:46.243Z,15.60
2017-10-27T18:15:12.489Z,15.03
2017-10-27T18:17:38.783Z,13.03
2017-10-27T18:20:05.034Z,12.73
2017-10-27T18:22:31.292Z,12.97
2017-10-27T18:24:57.557Z,12.45
2017-10-27T18:27:23.812Z,10.60
2017-10-27T18:29:50.063Z,13.00
2017-10-27T18:32:16.374Z,12.60
2017-10-27T18:34:42.640Z,11.37
2017-10-27T18:37:08.847Z,13.37
2017-10-27T18:39:35.107Z,16.43
2017-10-27T18:42:01.328Z,14.03
2017-10-27T18:44:27.538Z,13.40
2017-10-27T18:46:53.786Z,11.40
2017-10-27T18:49:20.002Z,15.43
2017-10-27T18:51:46.229Z,12.83
2017-10-27T18:54:12.487Z,14.10
2017-10-27T18:56:38.876Z,14.97
2017-10-27T18:59:05.101Z,12.00
2017-10-27T19:01:31.358Z,11.40
2017-10-27T19:03:57.795Z,11.40
2017-10-27T19:06:24.013Z,13.17
2017-10-27T19:08:50.259Z,18.03
2017-10-27T19:11:16.462Z,16.63
2017-10-27T19:13:42.680Z,12.63
2017-10-27T19:16:08.923Z,17.13
2017-10-27T19:18:35.137Z,12.57
2017-10-27T19:21:01.358Z,12.20
2017-10-27T19:23:27.633Z,12.70
2017-10-27T19:25:53.862Z,11.83
2017-10-27T19:28:20.103Z,11.53
2017-10-27T19:30:46.383Z,11.93
2017-10-27T19:33:12.695Z,9.23
2017-10-27T19:35:38.918Z,11.40
2017-10-27T19:38:05.186Z,13.33
2017-10-27T19:40:31.409Z,10.87
2017-10-27T19:42:57.638Z,12.23
2017-10-27T19:45:23.899Z,11.27
2017-10-27T19:47:50.309Z,10.60
2017-10-27T19:50:16.534Z,13.80
2017-10-27T19:52:42.804Z,15.03
2017-10-27T19:55:09.034Z,12.70
2017-10-27T19:57:35.447Z,11.50
2017-10-27T20:00:01.725Z,14.00
2017-10-27T20:02:27.950Z,13.40
2017-10-27T20:04:54.182Z,13.17
2017-10-27T20:07:20.447Z,12.40
2017-10-27T20:09:46.641Z,10.70
2017-10-27T20:12:12.851Z,11.50
2017-10-27T20:14:39.071Z,10.17
2017-10-27T20:17:05.294Z,9.93
2017-10-27T20:19:31.554Z,10.63
2017-10-27T20:21:57.784Z,10.53
2017-10-27T20:24:24.008Z,11.40
2017-10-27T20:26:50.285Z,10.60
2017-10-27T20:29:16.495Z,12.53
2017-10-27T20:31:42.742Z,13.13
2017-10-27T20:34:09.028Z,16.13
2017-10-27T20:36:35.265Z,17.62
2017-10-27T20:39:01.494Z,18.90
2017-10-27T20:41:27.761Z,17.50
2017-10-27T20:43:53.991Z,22.30
2017-10-27T20:46:20.220Z,18.97
2017-10-27T20:48:46.497Z,17.17
2017-10-27T20:51:12.704Z,18.23
2017-10-27T20:53:38.922Z,16.33
2017-10-27T20:56:05.190Z,18.67
2017-10-27T20:58:31.411Z,15.90
2017-10-27T21:00:57.638Z,12.90
2017-10-27T21:03:23.908Z,14.40
2017-10-27T21:05:50.147Z,14.73
2017-10-27T21:08:16.391Z,13.50
2017-10-27T21:10:42.724Z,15.03
2017-10-27T21:13:09.125Z,13.50
2017-10-27T21:15:35.381Z,13.33
2017-10-27T21:18:01.673Z,15.57
2017-10-27T21:20:27.896Z,16.47
2017-10-27T21:22:54.131Z,12.73
2017-10-27T21:25:20.389Z,13.60
2017-10-27T21:27:46.612Z,24.70
2017-10-27T21:30:12.844Z,16.63
2017-10-27T21:32:39.106Z,18.50
2017-10-27T21:35:05.360Z,12.83
2017-10-27T21:37:31.592Z,14.30
2017-10-27T21:39:57.884Z,13.10
2017-10-27T21:42:24.300Z,13.30
2017-10-27T21:44:50.532Z,15.00
2017-10-27T21:47:16.815Z,14.83
2017-10-27T21:49:43.110Z,13.40
2017-10-27T21:52:09.365Z,14.20
2017-10-27T21:54:35.644Z,17.13
2017-10-27T21:57:01.855Z,14.00
2017-10-27T21:59:28.097Z,15.37
2017-10-27T22:01:54.369Z,16.53
2017-10-27T22:04:20.598Z,14.60
2017-10-27T22:06:46.888Z,14.60
2017-10-27T22:09:13.122Z,13.50
2017-10-27T22:11:39.340Z,14.20
2017-10-27T22:14:05.569Z,15.23
2017-10-27T22:16:31.845Z,14.53
2017-10-27T22:18:58.088Z,15.13
2017-10-27T22:21:24.317Z,16.30
2017-10-27T22:23:50.602Z,17.02
2017-10-27T22:26:16.823Z,14.37
2017-10-27T22:28:43.102Z,14.93
2017-10-27T22:31:09.394Z,15.47
2017-10-27T22:33:35.778Z,14.33
2017-10-27T22:36:02.084Z,15.70
2017-10-27T22:38:28.385Z,16.07
2017-10-27T22:40:54.739Z,14.10
2017-10-27T22:43:21.010Z,13.23
2017-10-27T22:45:47.262Z,12.57
2017-10-27T22:48:13.492Z,11.87
2017-10-27T22:50:39.709Z,12.70
2017-10-27T22:53:05.962Z,11.50
2017-10-27T22:55:32.187Z,11.37
2017-10-27T22:57:58.429Z,10.37
2017-10-27T23:00:24.684Z,11.03
2017-10-27T23:02:50.901Z,11.97
2017-10-27T23:05:17.114Z,11.73
2017-10-27T23:07:43.380Z,10.43
2017-10-27T23:10:09.603Z,12.53
2017-10-27T23:12:35.825Z,11.00
2017-10-27T23:15:02.105Z,9.80
2017-10-27T23:17:28.332Z,11.10
2017-10-27T23:19:54.564Z,10.10
2017-10-27T23:22:20.844Z,12.87
2017-10-27T23:24:47.085Z,11.03
2017-10-27T23:27:13.311Z,9.20
2017-10-27T23:29:39.592Z,10.70
2017-10-27T23:32:05.842Z,13.93
2017-10-27T23:34:32.071Z,10.80
2017-10-27T23:36:58.380Z,11.50
2017-10-27T23:39:24.841Z,10.10
2017-10-27T23:41:51.084Z,9.27
2017-10-27T23:44:17.357Z,9.40
2017-10-27T23:46:43.600Z,11.13
2017-10-27T23:49:09.835Z,9.67
2017-10-27T23:51:36.133Z,8.03
2017-10-27T23:54:02.371Z,9.03
2017-10-27T23:56:28.596Z,7.33
2017-10-27T23:58:54.878Z,8.67
